Time;durP1;ratioP1;P1;durP2;ratioP2;P2;SDS_P1;SDS_P2;PMS_P1;PMS_P2;Temp;Humidity;BMP_temperature;BMP_pressure;BME280_temperature;BME280_humidity;BME280_pressure;Samples;Min_cycle;Max_cycle;Signal;HPM_P1;HPM_P2
2022/06/03 00:04:32;;;;;;;;;;;13.10;1.00;;;;;;10250514;28;84937;-59
2022/06/03 00:09:51;;;;;;;;;;;13.10;1.00;;;;;;10255138;28;84215;-58
2022/06/03 00:14:52;;;;;;;;;;;13.00;1.00;;;;;;10251066;28;84318;-59
2022/06/03 00:20:10;;;;;;;;;;;13.00;1.00;;;;;;10249991;28;84753;-58
2022/06/03 00:25:30;;;;;;;;;;;12.90;1.00;;;;;;10252753;28;84928;-57
2022/06/03 00:30:49;;;;;;;;;;;12.90;1.00;;;;;;10268053;28;84143;-57
2022/06/03 00:35:56;;;;;;;;;;;12.80;1.00;;;;;;10257327;28;84827;-55
2022/06/03 00:41:11;;;;;;;;;;;12.80;1.00;;;;;;10290270;28;85026;-56
2022/06/03 00:46:33;;;;;;;;;;;12.80;1.00;;;;;;10279342;28;84932;-54
2022/06/03 00:51:58;;;;;;;;;;;12.70;1.00;;;;;;10248953;28;84181;-56
2022/06/03 00:57:20;;;;;;;;;;;12.60;1.00;;;;;;10247504;28;86027;-58
2022/06/03 01:02:39;;;;;;;;;;;12.60;1.00;;;;;;10289315;28;84860;-59
2022/06/03 01:08:03;;;;;;;;;;;12.50;1.00;;;;;;10267321;28;84848;-58
2022/06/03 01:13:22;;;;;;;;;;;12.40;1.00;;;;;;10222793;28;84887;-59
2022/06/03 01:18:28;;;;;;;;;;;12.40;1.00;;;;;;10275549;28;84238;-59
2022/06/03 01:23:47;;;;;;;;;;;12.30;1.00;;;;;;10288979;28;84975;-54
2022/06/03 01:29:07;;;;;;;;;;;12.30;1.00;;;;;;10257775;28;84187;-56
2022/06/03 01:34:16;;;;;;;;;;;12.20;1.00;;;;;;10249272;28;84854;-57
2022/06/03 01:39:16;;;;;;;;;;;12.20;1.00;;;;;;10281873;28;84161;-58
2022/06/03 01:44:23;;;;;;;;;;;12.10;1.00;;;;;;10288321;28;84248;-59
2022/06/03 01:49:23;;;;;;;;;;;12.10;1.00;;;;;;10285376;28;84141;-56
2022/06/03 01:54:33;;;;;;;;;;;12.00;1.00;;;;;;10269275;28;86498;-59
2022/06/03 01:59:37;;;;;;;;;;;12.00;1.00;;;;;;10229664;28;85063;-59
2022/06/03 02:04:56;;;;;;;;;;;11.90;1.00;;;;;;10230123;28;87437;-58
2022/06/03 02:10:15;;;;;;;;;;;11.80;1.00;;;;;;10205681;28;86654;-59
2022/06/03 02:15:34;;;;;;;;;;;11.80;1.00;;;;;;10227808;28;84895;-59
2022/06/03 02:20:53;;;;;;;;;;;11.70;1.00;;;;;;10269691;28;84200;-58
2022/06/03 02:25:54;;;;;;;;;;;11.70;1.00;;;;;;10278063;28;84204;-54
2022/06/03 02:31:00;;;;;;;;;;;11.70;1.00;;;;;;10245981;28;84775;-60
2022/06/03 02:36:15;;;;;;;;;;;11.60;1.00;;;;;;10256075;28;84922;-55
2022/06/03 02:41:32;;;;;;;;;;;11.50;1.00;;;;;;10286322;28;84703;-59
2022/06/03 02:46:52;;;;;;;;;;;11.40;1.00;;;;;;10270983;28;84338;-59
2022/06/03 02:57:17;;;;;;;;;;;11.30;2.90;;;;;;10243780;28;84163;-47
2022/06/03 03:02:37;;;;;;;;;;;11.40;2.90;;;;;;10244807;28;84914;-48
2022/06/03 03:07:47;;;;;;;;;;;11.30;10.80;;;;;;10244496;28;84305;-49
2022/06/03 03:13:04;;;;;;;;;;;11.30;6.00;;;;;;10227258;28;84917;-49
2022/06/03 03:18:10;;;;;;;;;;;11.20;14.20;;;;;;10246044;28;84917;-50
2022/06/03 03:23:16;;;;;;;;;;;11.20;6.60;;;;;;10251860;28;84910;-47
2022/06/03 03:28:38;;;;;;;;;;;11.20;1.00;;;;;;10251142;28;84126;-47
2022/06/03 03:33:44;;;;;;;;;;;11.10;10.30;;;;;;10233230;28;86959;-51
2022/06/03 03:39:00;;;;;;;;;;;11.10;1.90;;;;;;10251290;28;84097;-48
2022/06/03 03:44:10;;;;;;;;;;;11.10;3.80;;;;;;10251399;28;85316;-46
2022/06/03 03:49:10;;;;;;;;;;;11.10;9.80;;;;;;10232800;28;86166;-49
2022/06/03 03:54:24;;;;;;;;;;;11.00;19.80;;;;;;10250345;28;84160;-49
2022/06/03 03:59:39;;;;;;;;;;;11.00;13.50;;;;;;10251155;28;84301;-49
2022/06/03 04:04:53;;;;;;;;;;;11.00;13.50;;;;;;10248238;28;84169;-49
2022/06/03 04:10:29;;;;;;;;;;;11.10;10.40;;;;;;10248296;28;84874;-49
2022/06/03 04:15:49;;;;;;;;;;;11.10;16.90;;;;;;10222384;28;84892;-48
2022/06/03 04:20:55;;;;;;;;;;;11.10;10.00;;;;;;10232288;28;86765;-47
2022/06/03 04:26:04;;;;;;;;;;;11.20;1.00;;;;;;10249166;28;84074;-48
2022/06/03 04:31:24;;;;;;;;;;;11.30;1.00;;;;;;10248608;28;84885;-48
2022/06/03 04:36:33;;;;;;;;;;;11.50;1.00;;;;;;10249620;28;84092;-49
2022/06/03 04:41:52;;;;;;;;;;;11.80;1.00;;;;;;10249120;28;84844;-47
2022/06/03 04:47:11;;;;;;;;;;;11.80;1.00;;;;;;10231185;28;85955;-48
2022/06/03 04:52:30;;;;;;;;;;;11.90;1.00;;;;;;10248031;28;84798;-50
2022/06/03 04:57:45;;;;;;;;;;;11.90;1.00;;;;;;10248703;28;84122;-52
2022/06/03 05:02:52;;;;;;;;;;;12.00;1.00;;;;;;10249222;28;84098;-51
2022/06/03 05:08:11;;;;;;;;;;;12.20;1.00;;;;;;10249232;28;84952;-50
2022/06/03 05:13:15;;;;;;;;;;;12.30;1.00;;;;;;10245127;28;84857;-51
2022/06/03 05:18:34;;;;;;;;;;;12.50;1.00;;;;;;10244326;28;84559;-49
2022/06/03 05:23:40;;;;;;;;;;;12.70;1.00;;;;;;10245470;28;84862;-49
2022/06/03 05:28:50;;;;;;;;;;;12.90;1.00;;;;;;10245372;28;84159;-50
2022/06/03 05:34:02;;;;;;;;;;;13.10;1.00;;;;;;10243265;28;84476;-49
2022/06/03 05:39:22;;;;;;;;;;;13.30;1.00;;;;;;10244733;28;84967;-57
2022/06/03 05:44:41;;;;;;;;;;;13.50;1.00;;;;;;10243334;28;84973;-51
2022/06/03 05:50:01;;;;;;;;;;;13.70;1.00;;;;;;10244434;28;86079;-57
2022/06/03 05:55:07;;;;;;;;;;;14.10;1.00;;;;;;10244506;28;84803;-54
2022/06/03 06:00:13;;;;;;;;;;;14.40;1.00;;;;;;10249033;28;85069;-49
2022/06/03 06:05:35;;;;;;;;;;;14.60;1.00;;;;;;10243829;28;84524;-47
2022/06/03 06:10:41;;;;;;;;;;;14.80;1.00;;;;;;10244529;28;84141;-49
2022/06/03 06:16:01;;;;;;;;;;;15.10;1.00;;;;;;10243502;28;84307;-49
2022/06/03 06:21:12;;;;;;;;;;;15.30;1.00;;;;;;10242517;28;84184;-50
2022/06/03 06:26:32;;;;;;;;;;;15.60;99.90;;;;;;10226059;28;85365;-52
2022/06/03 06:31:48;;;;;;;;;;;15.80;99.90;;;;;;10241879;28;84304;-49
2022/06/03 06:37:07;;;;;;;;;;;16.00;99.90;;;;;;10244666;28;84344;-52
2022/06/03 06:42:15;;;;;;;;;;;16.30;99.90;;;;;;10243909;28;84336;-48
2022/06/03 06:47:19;;;;;;;;;;;16.60;75.60;;;;;;10244806;28;84803;-49
2022/06/03 06:52:26;;;;;;;;;;;16.90;1.00;;;;;;10243800;28;84962;-50
2022/06/03 06:57:31;;;;;;;;;;;17.20;1.00;;;;;;10249114;28;84403;-51
2022/06/03 07:02:39;;;;;;;;;;;17.40;1.00;;;;;;10251500;28;85484;-49
2022/06/03 07:07:40;;;;;;;;;;;17.80;1.00;;;;;;10252121;28;84341;-47
2022/06/03 07:12:56;;;;;;;;;;;18.10;99.90;;;;;;10252825;28;84930;-48
2022/06/03 07:23:38;;;;;;;;;;;18.80;99.90;;;;;;10247083;28;84347;-47
2022/06/03 07:29:02;;;;;;;;;;;19.30;99.90;;;;;;10250585;28;86236;-48
2022/06/03 07:34:11;;;;;;;;;;;20.00;1.00;;;;;;10206978;28;86233;-49
2022/06/03 07:39:35;;;;;;;;;;;20.90;87.70;;;;;;10250449;28;84969;-53
2022/06/03 07:44:45;;;;;;;;;;;21.20;1.00;;;;;;10249043;28;84140;-48
2022/06/03 07:49:51;;;;;;;;;;;21.70;99.90;;;;;;10227664;28;84736;-48
2022/06/03 07:54:55;;;;;;;;;;;22.20;1.00;;;;;;10249655;28;84367;-49
2022/06/03 07:59:59;;;;;;;;;;;22.60;99.90;;;;;;10249553;28;84264;-47
2022/06/03 08:05:12;;;;;;;;;;;23.00;99.90;;;;;;10248806;28;84112;-49
2022/06/03 08:15:35;;;;;;;;;;;23.40;1.00;;;;;;10249666;28;84119;-48
2022/06/03 08:20:42;;;;;;;;;;;23.60;1.00;;;;;;10249597;28;84106;-48
2022/06/03 08:25:44;;;;;;;;;;;24.20;99.90;;;;;;10248718;28;84390;-46
2022/06/03 08:30:46;;;;;;;;;;;24.70;99.90;;;;;;10246317;28;85282;-49
2022/06/03 08:35:47;;;;;;;;;;;25.00;89.90;;;;;;10246982;28;84588;-48
2022/06/03 08:41:06;;;;;;;;;;;25.50;1.00;;;;;;10249383;28;84940;-48
2022/06/03 08:46:14;;;;;;;;;;;26.00;1.00;;;;;;10248163;28;86338;-47
2022/06/03 08:51:18;;;;;;;;;;;26.30;1.00;;;;;;10248620;28;85118;-49
2022/06/03 08:56:29;;;;;;;;;;;26.30;1.00;;;;;;10309923;22;85709;-51
2022/06/03 09:01:36;;;;;;;;;;;26.40;1.00;;;;;;10294881;28;84101;-48
2022/06/03 09:06:43;;;;;;;;;;;26.80;1.00;;;;;;10329239;28;84202;-49
2022/06/03 09:12:05;;;;;;;;;;;27.50;1.00;;;;;;10300667;28;84263;-54
2022/06/03 09:17:25;;;;;;;;;;;28.00;1.00;;;;;;10274939;28;85936;-51
2022/06/03 09:22:28;;;;;;;;;;;28.60;99.90;;;;;;10305867;28;84294;-55
2022/06/03 09:27:29;;;;;;;;;;;28.90;99.90;;;;;;10307323;28;85053;-50
2022/06/03 09:32:37;;;;;;;;;;;29.60;99.90;;;;;;10303887;28;105805;-53
2022/06/03 09:37:41;;;;;;;;;;;29.20;99.90;;;;;;10300695;28;84751;-51
2022/06/03 09:42:53;;;;;;;;;;;28.20;99.90;;;;;;10288195;28;85020;-51
2022/06/03 09:47:54;;;;;;;;;;;28.60;99.90;;;;;;10289188;28;84343;-52
2022/06/03 09:52:58;;;;;;;;;;;29.10;99.90;;;;;;10285050;28;84959;-49
2022/06/03 09:58:00;;;;;;;;;;;29.40;99.90;;;;;;10285198;28;84921;-53
2022/06/03 10:03:01;;;;;;;;;;;28.90;94.10;;;;;;10318750;28;84237;-52
2022/06/03 10:08:03;;;;;;;;;;;28.90;95.80;;;;;;10327348;28;84192;-52
2022/06/03 10:13:05;;;;;;;;;;;29.20;83.00;;;;;;10326510;28;86380;-51
2022/06/03 10:18:13;;;;;;;;;;;29.20;71.90;;;;;;10324804;28;84918;-54
2022/06/03 10:23:13;;;;;;;;;;;28.70;37.60;;;;;;10320375;28;84652;-56
2022/06/03 10:28:15;;;;;;;;;;;28.70;41.00;;;;;;10299796;28;85514;-51
2022/06/03 10:33:16;;;;;;;;;;;28.80;45.50;;;;;;10291899;28;84797;-48
2022/06/03 10:38:18;;;;;;;;;;;29.30;36.60;;;;;;10281760;28;84777;-53
2022/06/03 10:43:27;;;;;;;;;;;29.10;25.10;;;;;;10283744;28;84125;-52
2022/06/03 10:48:29;;;;;;;;;;;29.90;25.00;;;;;;10288874;28;85200;-49
2022/06/03 11:04:22;;;;;;;;;;;30.60;1.00;;;;;;10294461;28;84879;-49
2022/06/03 11:09:23;;;;;;;;;;;31.20;1.00;;;;;;10284397;28;84964;-51
2022/06/03 11:14:26;;;;;;;;;;;31.60;1.00;;;;;;10288315;28;84414;-50
2022/06/03 11:19:29;;;;;;;;;;;31.10;1.00;;;;;;10293042;28;84290;-49
2022/06/03 11:24:30;;;;;;;;;;;31.60;1.00;;;;;;10297706;28;84723;-50
2022/06/03 11:29:32;;;;;;;;;;;30.40;1.00;;;;;;10314267;28;84986;-52
2022/06/03 11:34:36;;;;;;;;;;;30.10;1.00;;;;;;10303114;28;84844;-48
2022/06/03 11:39:51;;;;;;;;;;;30.80;1.00;;;;;;10289109;28;84975;-54
2022/06/03 11:45:08;;;;;;;;;;;31.80;1.00;;;;;;10290335;28;84253;-58
2022/06/03 11:50:09;;;;;;;;;;;31.20;1.00;;;;;;10285095;28;84123;-53
2022/06/03 11:55:11;;;;;;;;;;;29.70;1.00;;;;;;10289343;28;84240;-51
2022/06/03 12:00:19;;;;;;;;;;;29.90;1.00;;;;;;10284499;28;84210;-51
2022/06/03 12:05:21;;;;;;;;;;;30.10;1.00;;;;;;10306032;28;84867;-55
2022/06/03 12:10:24;;;;;;;;;;;30.70;1.00;;;;;;10312182;28;84284;-51
2022/06/03 12:15:30;;;;;;;;;;;30.40;1.00;;;;;;10304394;28;85040;-59
2022/06/03 12:20:31;;;;;;;;;;;30.80;1.00;;;;;;10309902;28;84834;-50
2022/06/03 12:25:31;;;;;;;;;;;31.20;1.00;;;;;;10302302;28;84290;-52
2022/06/03 12:30:32;;;;;;;;;;;31.50;1.00;;;;;;10289717;28;84196;-56
2022/06/03 12:35:41;;;;;;;;;;;31.10;1.00;;;;;;10281796;28;85424;-53
2022/06/03 12:40:42;;;;;;;;;;;30.90;1.00;;;;;;10306526;28;84429;-55
2022/06/03 12:45:55;;;;;;;;;;;31.00;1.00;;;;;;10303935;28;84881;-57
2022/06/03 12:51:15;;;;;;;;;;;31.60;1.00;;;;;;10281363;28;84989;-67
2022/06/03 12:56:24;;;;;;;;;;;32.00;1.00;;;;;;10286420;28;84242;-51
2022/06/03 13:01:45;;;;;;;;;;;30.30;1.00;;;;;;10288807;28;84251;-52
2022/06/03 13:07:18;;;;;;;;;;;29.60;1.00;;;;;;10290050;28;84853;-53
2022/06/03 13:12:28;;;;;;;;;;;28.90;1.00;;;;;;10263030;28;84853;-53
2022/06/03 13:17:47;;;;;;;;;;;29.10;1.00;;;;;;10298926;28;84985;-55
2022/06/03 13:22:49;;;;;;;;;;;28.90;1.00;;;;;;10293469;28;84858;-53
2022/06/03 13:28:04;;;;;;;;;;;29.20;1.00;;;;;;10307111;28;84079;-53
2022/06/03 13:33:20;;;;;;;;;;;29.10;1.00;;;;;;10286229;28;84383;-54
2022/06/03 13:38:25;;;;;;;;;;;29.40;1.00;;;;;;10284467;28;84823;-55
2022/06/03 13:43:25;;;;;;;;;;;29.50;1.00;;;;;;10286696;28;84365;-49
2022/06/03 13:48:42;;;;;;;;;;;29.00;1.00;;;;;;10298284;28;85062;-53
2022/06/03 13:53:49;;;;;;;;;;;28.80;1.00;;;;;;10272259;28;84137;-51
2022/06/03 13:58:49;;;;;;;;;;;28.10;1.00;;;;;;10287639;28;85109;-51
2022/06/03 14:03:56;;;;;;;;;;;27.90;1.00;;;;;;10287363;28;84504;-48
2022/06/03 14:08:59;;;;;;;;;;;28.00;1.00;;;;;;10287331;28;84172;-49
2022/06/03 14:14:18;;;;;;;;;;;27.50;1.00;;;;;;10288552;28;84886;-50
2022/06/03 14:19:34;;;;;;;;;;;27.50;1.00;;;;;;10276381;28;84242;-46
2022/06/03 14:24:38;;;;;;;;;;;27.40;1.00;;;;;;10285642;28;84266;-56
2022/06/03 14:29:45;;;;;;;;;;;26.70;1.00;;;;;;10277075;28;86310;-57
2022/06/03 14:34:48;;;;;;;;;;;26.70;1.00;;;;;;10285890;28;84085;-58
2022/06/03 14:39:51;;;;;;;;;;;26.80;1.00;;;;;;10282387;28;85332;-53
2022/06/03 14:44:53;;;;;;;;;;;26.60;1.00;;;;;;10285248;28;86597;-47
2022/06/03 14:50:14;;;;;;;;;;;26.60;1.00;;;;;;10285653;28;84830;-48
2022/06/03 14:55:33;;;;;;;;;;;26.40;1.00;;;;;;10310788;22;85056;-56
2022/06/03 15:00:33;;;;;;;;;;;26.20;1.00;;;;;;10324473;28;84379;-56
2022/06/03 15:05:51;;;;;;;;;;;26.10;1.00;;;;;;10341430;28;84970;-54
2022/06/03 15:11:01;;;;;;;;;;;26.00;1.00;;;;;;10302744;28;84274;-59
2022/06/03 15:16:02;;;;;;;;;;;25.70;1.00;;;;;;10310572;28;86092;-55
2022/06/03 15:21:14;;;;;;;;;;;25.60;1.00;;;;;;10329726;28;84895;-53
2022/06/03 15:26:16;;;;;;;;;;;25.70;1.00;;;;;;10325858;28;84883;-57
2022/06/03 15:31:20;;;;;;;;;;;25.70;1.00;;;;;;10333212;28;85005;-55
2022/06/03 15:36:23;;;;;;;;;;;25.70;6.20;;;;;;10331893;28;84261;-59
2022/06/03 15:41:25;;;;;;;;;;;25.70;28.90;;;;;;10327412;28;84352;-50
2022/06/03 15:46:31;;;;;;;;;;;25.70;29.20;;;;;;10329728;28;84936;-49
2022/06/03 15:51:45;;;;;;;;;;;25.40;32.90;;;;;;10327382;28;84204;-55
2022/06/03 15:56:57;;;;;;;;;;;25.20;53.80;;;;;;10331043;28;84099;-53
2022/06/03 16:01:57;;;;;;;;;;;25.00;63.00;;;;;;10308312;28;85061;-48
2022/06/03 16:07:16;;;;;;;;;;;24.90;84.10;;;;;;10290405;28;84913;-49
2022/06/03 16:12:19;;;;;;;;;;;24.60;99.90;;;;;;10290086;28;84084;-56
2022/06/03 16:17:26;;;;;;;;;;;24.60;99.90;;;;;;10313380;28;84520;-55
2022/06/03 16:22:40;;;;;;;;;;;24.60;99.90;;;;;;10329302;28;84808;-57
2022/06/03 16:27:56;;;;;;;;;;;24.40;99.90;;;;;;10325632;28;84256;-56
2022/06/03 16:32:57;;;;;;;;;;;24.50;99.90;;;;;;10321880;28;85356;-48
2022/06/03 16:38:04;;;;;;;;;;;24.40;99.90;;;;;;10327891;28;85031;-44
2022/06/03 16:43:13;;;;;;;;;;;24.30;99.90;;;;;;10324129;28;84524;-45
2022/06/03 16:48:33;;;;;;;;;;;24.40;99.90;;;;;;10320536;28;85556;-62
2022/06/03 16:53:35;;;;;;;;;;;24.40;99.90;;;;;;10276942;28;84755;-58
2022/06/03 16:58:45;;;;;;;;;;;24.40;99.90;;;;;;10308122;28;84227;-51
2022/06/03 17:03:47;;;;;;;;;;;24.30;99.90;;;;;;10317503;28;86351;-53
2022/06/03 17:08:52;;;;;;;;;;;24.20;99.90;;;;;;10314675;28;85070;-55
2022/06/03 17:13:55;;;;;;;;;;;24.20;99.90;;;;;;10309650;28;84891;-51
2022/06/03 17:18:56;;;;;;;;;;;23.90;99.90;;;;;;10294747;28;84676;-54
2022/06/03 17:24:15;;;;;;;;;;;23.80;99.90;;;;;;10298229;28;85475;-54
2022/06/03 17:29:27;;;;;;;;;;;23.80;99.90;;;;;;10304730;28;84949;-57
2022/06/03 17:34:46;;;;;;;;;;;23.60;1.00;;;;;;10323168;28;87036;-58
2022/06/03 17:39:54;;;;;;;;;;;23.60;1.00;;;;;;10321364;28;83994;-56
2022/06/03 17:45:01;;;;;;;;;;;23.50;1.00;;;;;;10321813;28;84878;-57
2022/06/03 17:50:03;;;;;;;;;;;23.40;1.00;;;;;;10325918;28;84314;-53
2022/06/03 17:55:20;;;;;;;;;;;23.30;1.00;;;;;;10302416;28;84952;-55
2022/06/03 18:00:23;;;;;;;;;;;23.20;1.00;;;;;;10312497;28;84388;-53
2022/06/03 18:05:28;;;;;;;;;;;23.30;1.00;;;;;;10310667;28;84949;-58
2022/06/03 18:10:30;;;;;;;;;;;23.10;1.00;;;;;;10319318;28;84754;-57
2022/06/03 18:15:32;;;;;;;;;;;23.10;1.00;;;;;;10323905;28;84880;-59
2022/06/03 18:20:35;;;;;;;;;;;23.00;1.00;;;;;;10327450;28;84882;-61
2022/06/03 18:25:42;;;;;;;;;;;22.90;54.30;;;;;;10326351;28;85474;-58
2022/06/03 18:30:53;;;;;;;;;;;22.90;99.90;;;;;;10323005;28;84716;-58
2022/06/03 18:36:13;;;;;;;;;;;22.80;99.90;;;;;;10324085;28;86629;-59
2022/06/03 18:41:30;;;;;;;;;;;22.70;99.90;;;;;;10322277;28;84287;-58
2022/06/03 18:46:35;;;;;;;;;;;22.60;1.00;;;;;;10323312;28;84794;-55
2022/06/03 18:51:55;;;;;;;;;;;22.60;1.00;;;;;;10329285;28;84399;-59
2022/06/03 18:56:59;;;;;;;;;;;22.50;1.00;;;;;;10331793;28;87037;-58
2022/06/03 19:02:00;;;;;;;;;;;22.50;1.00;;;;;;10332187;28;86284;-63
2022/06/03 19:07:13;;;;;;;;;;;22.40;1.00;;;;;;10322384;28;84796;-61
2022/06/03 19:12:20;;;;;;;;;;;22.20;1.00;;;;;;10342496;28;85040;-61
2022/06/03 19:17:38;;;;;;;;;;;22.00;1.00;;;;;;10329339;28;84325;-52
2022/06/03 19:22:51;;;;;;;;;;;21.90;1.00;;;;;;10331860;28;84284;-60
2022/06/03 19:27:51;;;;;;;;;;;21.70;1.00;;;;;;10324141;28;84974;-48
2022/06/03 19:33:13;;;;;;;;;;;21.60;1.00;;;;;;10323761;28;84119;-45
2022/06/03 19:38:32;;;;;;;;;;;21.40;1.00;;;;;;10328989;28;84758;-55
2022/06/03 19:43:51;;;;;;;;;;;21.30;99.90;;;;;;10332968;28;85110;-48
2022/06/03 19:48:54;;;;;;;;;;;21.20;99.90;;;;;;10327273;28;84828;-47
2022/06/03 19:54:13;;;;;;;;;;;21.10;99.90;;;;;;10330342;28;84292;-47
2022/06/03 19:59:27;;;;;;;;;;;21.00;99.90;;;;;;10328045;28;85255;-47
2022/06/03 20:04:47;;;;;;;;;;;21.00;1.00;;;;;;10328544;28;84581;-48
2022/06/03 20:09:58;;;;;;;;;;;20.80;1.00;;;;;;10329070;28;84597;-52
2022/06/03 20:14:59;;;;;;;;;;;20.80;1.00;;;;;;10321084;28;84539;-47
2022/06/03 20:20:02;;;;;;;;;;;20.70;1.00;;;;;;10324120;28;84321;-49
2022/06/03 20:25:22;;;;;;;;;;;20.60;1.00;;;;;;10331427;28;84737;-51
2022/06/03 20:30:27;;;;;;;;;;;20.40;1.00;;;;;;10329486;28;85929;-50
2022/06/03 20:35:33;;;;;;;;;;;20.30;1.00;;;;;;10329505;28;84240;-47
2022/06/03 20:40:35;;;;;;;;;;;20.00;1.00;;;;;;10330979;28;84180;-50
2022/06/03 20:45:51;;;;;;;;;;;19.80;1.00;;;;;;10328141;28;84174;-49
2022/06/03 20:50:56;;;;;;;;;;;19.70;1.00;;;;;;10326486;28;84336;-47
2022/06/03 20:56:01;;;;;;;;;;;19.50;1.00;;;;;;10339333;22;85555;-46
2022/06/03 21:01:04;;;;;;;;;;;19.30;99.90;;;;;;10328916;28;84962;-52
2022/06/03 21:16:46;;;;;;;;;;;18.80;99.90;;;;;;10311097;28;84981;-47
2022/06/03 21:22:04;;;;;;;;;;;18.70;1.00;;;;;;10310553;28;84931;-46
2022/06/03 21:27:06;;;;;;;;;;;18.70;1.00;;;;;;10308983;28;84753;-52
2022/06/03 21:32:19;;;;;;;;;;;18.60;1.00;;;;;;10308657;28;84848;-46
2022/06/03 21:37:23;;;;;;;;;;;18.40;1.00;;;;;;10304356;28;84900;-52
2022/06/03 21:42:29;;;;;;;;;;;18.30;1.00;;;;;;10305358;28;84935;-46
2022/06/03 21:47:47;;;;;;;;;;;18.20;1.00;;;;;;10306358;28;84903;-49
2022/06/03 21:52:57;;;;;;;;;;;18.10;1.00;;;;;;10307328;28;84682;-49
2022/06/03 21:58:01;;;;;;;;;;;18.10;1.00;;;;;;10304929;28;84995;-49
2022/06/03 22:03:02;;;;;;;;;;;17.90;1.00;;;;;;10309834;28;84987;-50
2022/06/03 22:08:05;;;;;;;;;;;17.90;23.90;;;;;;10308466;28;84752;-50
2022/06/03 22:13:07;;;;;;;;;;;17.80;58.50;;;;;;10304031;28;84182;-52
2022/06/03 22:18:10;;;;;;;;;;;17.80;99.90;;;;;;10305643;28;86936;-47
2022/06/03 22:23:11;;;;;;;;;;;17.70;99.90;;;;;;10305267;28;84878;-50
2022/06/03 22:28:26;;;;;;;;;;;17.70;99.90;;;;;;10302955;28;85704;-46
2022/06/03 22:33:34;;;;;;;;;;;17.60;99.90;;;;;;10304803;28;84302;-49
2022/06/03 22:43:55;;;;;;;;;;;17.60;99.90;;;;;;10325012;28;85799;-48
2022/06/03 22:48:56;;;;;;;;;;;17.60;99.90;;;;;;10317367;28;84850;-47
2022/06/03 22:53:57;;;;;;;;;;;17.50;99.90;;;;;;10282190;28;86656;-50
2022/06/03 22:59:00;;;;;;;;;;;17.40;99.90;;;;;;10283491;28;85970;-45
2022/06/03 23:04:01;;;;;;;;;;;17.30;99.90;;;;;;10294949;28;84826;-46
2022/06/03 23:09:02;;;;;;;;;;;17.20;1.00;;;;;;10303796;28;84892;-46
2022/06/03 23:14:03;;;;;;;;;;;17.10;1.00;;;;;;10299631;28;84889;-50
2022/06/03 23:19:03;;;;;;;;;;;17.00;1.00;;;;;;10303292;28;84907;-49
2022/06/03 23:24:04;;;;;;;;;;;16.90;1.00;;;;;;10308066;28;86155;-46
2022/06/03 23:29:04;;;;;;;;;;;16.80;1.00;;;;;;10302445;28;86584;-49
2022/06/03 23:34:05;;;;;;;;;;;16.80;1.00;;;;;;10300348;28;85085;-46
2022/06/03 23:39:05;;;;;;;;;;;16.70;1.00;;;;;;10309709;28;85011;-44
2022/06/03 23:49:26;;;;;;;;;;;16.50;1.00;;;;;;10303700;28;85919;-48
2022/06/03 23:54:28;;;;;;;;;;;16.50;1.00;;;;;;10287614;28;84212;-48
2022/06/03 23:59:28;;;;;;;;;;;16.40;1.00;;;;;;10289070;28;83992;-47
